createdAt,value
2018-05-31T00:00:14.984Z,21.10
2018-05-31T00:02:43.992Z,21.10
2018-05-31T00:05:13.553Z,21.00
2018-05-31T00:07:44.241Z,21.10
2018-05-31T00:12:50.726Z,21.00
2018-05-31T00:15:20.583Z,21.00
2018-05-31T00:17:50.929Z,21.00
2018-05-31T00:20:20.598Z,20.90
2018-05-31T00:22:50.795Z,21.00
2018-05-31T00:25:19.190Z,20.90
2018-05-31T00:27:47.953Z,20.90
2018-05-31T00:30:16.641Z,20.90
2018-05-31T00:32:45.782Z,20.90
2018-05-31T00:35:14.064Z,20.90
2018-05-31T00:37:43.571Z,20.90
2018-05-31T00:40:12.293Z,20.90
2018-05-31T00:42:42.569Z,20.90
2018-05-31T00:45:11.274Z,20.90
2018-05-31T00:47:40.058Z,20.90
2018-05-31T00:50:09.087Z,20.90
2018-05-31T00:52:37.743Z,20.80
2018-05-31T00:55:06.188Z,20.90
2018-05-31T00:57:36.264Z,20.90
2018-05-31T01:00:05.168Z,20.90
2018-05-31T01:02:34.758Z,20.80
2018-05-31T01:05:03.307Z,20.90
2018-05-31T01:07:31.817Z,20.90
2018-05-31T01:10:02.842Z,20.90
2018-05-31T01:12:32.152Z,20.90
2018-05-31T01:15:00.943Z,20.80
2018-05-31T01:17:29.903Z,20.90
2018-05-31T01:19:58.076Z,20.80
2018-05-31T01:22:28.329Z,20.90
2018-05-31T01:24:57.355Z,20.80
2018-05-31T01:27:25.502Z,20.80
2018-05-31T01:29:54.591Z,20.80
2018-05-31T01:32:23.014Z,20.80
2018-05-31T01:34:52.448Z,20.80
2018-05-31T01:37:20.526Z,20.80
2018-05-31T01:39:49.234Z,20.80
2018-05-31T01:42:17.774Z,20.80
2018-05-31T01:44:47.718Z,20.80
2018-05-31T01:47:18.083Z,20.80
2018-05-31T01:49:47.342Z,20.80
2018-05-31T01:52:16.077Z,20.80
2018-05-31T01:54:46.188Z,20.80
2018-05-31T01:57:15.568Z,20.80
2018-05-31T01:59:44.242Z,20.80
2018-05-31T02:02:13.485Z,20.80
2018-05-31T02:04:42.069Z,20.80
2018-05-31T02:07:11.542Z,20.80
2018-05-31T02:09:40.578Z,20.80
2018-05-31T02:12:09.431Z,20.80
2018-05-31T02:14:37.814Z,20.80
2018-05-31T02:17:07.517Z,20.80
2018-05-31T02:19:37.250Z,20.80
2018-05-31T02:22:05.445Z,20.80
2018-05-31T02:24:33.851Z,20.80
2018-05-31T02:27:02.540Z,20.80
2018-05-31T02:29:32.340Z,20.80
2018-05-31T02:32:00.604Z,20.80
2018-05-31T02:34:29.205Z,20.80
2018-05-31T02:36:58.776Z,20.80
2018-05-31T02:39:27.141Z,20.80
2018-05-31T02:41:56.003Z,20.80
2018-05-31T02:44:24.977Z,20.80
2018-05-31T02:46:53.539Z,20.80
2018-05-31T02:49:22.158Z,20.80
2018-05-31T02:51:50.748Z,20.70
2018-05-31T02:54:19.361Z,20.80
2018-05-31T02:56:48.021Z,20.80
2018-05-31T02:59:17.063Z,20.70
2018-05-31T03:01:45.949Z,20.80
2018-05-31T03:04:14.634Z,20.80
2018-05-31T03:06:43.275Z,20.80
2018-05-31T03:09:13.532Z,20.70
2018-05-31T03:11:43.095Z,20.80
2018-05-31T03:14:12.264Z,20.80
2018-05-31T03:16:41.090Z,20.80
2018-05-31T03:19:09.576Z,20.80
2018-05-31T03:21:38.411Z,20.80
2018-05-31T03:24:06.829Z,20.80
2018-05-31T03:26:36.650Z,20.80
2018-05-31T03:29:05.291Z,20.70
2018-05-31T03:31:33.849Z,20.80
2018-05-31T03:34:02.770Z,20.70
2018-05-31T03:36:31.853Z,20.80
2018-05-31T03:38:59.797Z,20.80
2018-05-31T03:41:28.406Z,20.80
2018-05-31T03:43:58.961Z,20.70
2018-05-31T03:46:29.298Z,20.80
2018-05-31T03:48:58.699Z,20.70
2018-05-31T03:51:27.191Z,20.70
2018-05-31T03:53:57.058Z,20.70
2018-05-31T03:56:26.405Z,20.70
2018-05-31T03:58:55.326Z,20.70
2018-05-31T04:01:24.760Z,20.70
2018-05-31T04:03:54.192Z,20.80
2018-05-31T04:06:23.684Z,20.70
2018-05-31T04:08:52.025Z,20.70
2018-05-31T04:11:20.304Z,20.70
2018-05-31T04:13:48.898Z,20.70
2018-05-31T04:16:17.640Z,20.70
2018-05-31T04:18:45.902Z,20.70
2018-05-31T04:21:16.531Z,20.70
2018-05-31T04:23:45.009Z,20.70
2018-05-31T04:26:13.515Z,20.70
2018-05-31T04:28:41.995Z,20.70
2018-05-31T04:31:11.444Z,20.80
2018-05-31T04:33:40.493Z,20.80
2018-05-31T04:36:10.362Z,20.70
2018-05-31T04:38:39.227Z,20.70
2018-05-31T04:41:08.749Z,20.70
2018-05-31T04:43:36.853Z,20.70
2018-05-31T04:46:07.402Z,20.80
2018-05-31T04:48:36.640Z,20.70
2018-05-31T04:51:06.298Z,20.70
2018-05-31T04:53:34.843Z,20.70
2018-05-31T04:56:04.063Z,20.80
2018-05-31T04:58:33.149Z,20.70
2018-05-31T05:01:03.745Z,20.80
2018-05-31T05:03:32.408Z,20.70
2018-05-31T05:06:01.571Z,20.70
2018-05-31T05:08:31.215Z,20.70
2018-05-31T05:11:00.089Z,20.80
2018-05-31T05:13:29.246Z,20.70
2018-05-31T05:15:58.692Z,20.70
2018-05-31T05:18:28.253Z,20.70
2018-05-31T05:20:57.167Z,20.70
2018-05-31T05:23:27.270Z,20.70
2018-05-31T05:25:55.796Z,20.70
2018-05-31T05:28:26.061Z,20.70
2018-05-31T05:30:54.463Z,20.70
2018-05-31T05:33:23.922Z,20.80
2018-05-31T05:35:54.294Z,20.70
2018-05-31T05:38:22.944Z,20.70
2018-05-31T05:40:53.975Z,20.80
2018-05-31T05:43:22.576Z,20.70
2018-05-31T05:45:50.920Z,20.70
2018-05-31T05:48:20.492Z,20.80
2018-05-31T05:50:49.259Z,20.70
2018-05-31T05:53:18.772Z,20.80
2018-05-31T05:55:47.324Z,20.80
2018-05-31T05:58:16.481Z,20.80
2018-05-31T06:00:45.668Z,20.80
2018-05-31T06:03:15.862Z,20.80
2018-05-31T06:05:44.824Z,20.80
2018-05-31T06:08:15.364Z,20.80
2018-05-31T06:10:43.954Z,20.70
2018-05-31T06:13:12.464Z,20.80
2018-05-31T06:15:45.992Z,20.80
2018-05-31T06:18:14.535Z,20.80
2018-05-31T06:20:44.214Z,20.80
2018-05-31T06:23:13.695Z,20.80
2018-05-31T06:25:42.663Z,20.80
2018-05-31T06:28:12.779Z,20.80
2018-05-31T06:30:41.272Z,20.80
2018-05-31T06:33:09.869Z,20.80
2018-05-31T06:35:39.119Z,20.80
2018-05-31T06:38:07.610Z,20.80
2018-05-31T06:40:39.330Z,20.80
2018-05-31T06:43:09.478Z,20.80
2018-05-31T06:45:38.424Z,20.80
2018-05-31T06:48:09.965Z,20.80
2018-05-31T06:50:40.770Z,20.80
2018-05-31T06:53:10.170Z,20.80
2018-05-31T06:55:40.569Z,20.80
2018-05-31T06:58:10.240Z,20.80
2018-05-31T07:00:39.500Z,20.80
2018-05-31T07:03:08.946Z,20.80
2018-05-31T07:05:38.233Z,20.80
2018-05-31T07:08:06.848Z,20.80
2018-05-31T07:10:37.346Z,20.80
2018-05-31T07:13:06.740Z,20.80
2018-05-31T07:15:36.318Z,20.80
2018-05-31T07:18:06.621Z,20.80
2018-05-31T07:20:35.197Z,20.80
2018-05-31T07:23:04.373Z,20.80
2018-05-31T07:25:34.555Z,20.80
2018-05-31T07:28:04.694Z,20.80
2018-05-31T07:30:36.810Z,20.80
2018-05-31T07:33:07.050Z,20.80
2018-05-31T07:35:35.377Z,20.80
2018-05-31T07:38:03.888Z,20.80
2018-05-31T07:40:32.701Z,20.80
2018-05-31T07:43:02.758Z,20.80
2018-05-31T07:45:32.112Z,20.80
2018-05-31T07:48:00.523Z,20.80
2018-05-31T07:50:29.685Z,20.80
2018-05-31T07:52:59.879Z,20.80
2018-05-31T07:55:27.941Z,20.80
2018-05-31T07:57:57.654Z,20.80
2018-05-31T08:00:26.879Z,20.80
2018-05-31T08:02:55.002Z,20.80
2018-05-31T08:05:23.517Z,20.80
2018-05-31T08:07:52.943Z,20.80
2018-05-31T08:10:22.598Z,20.80
2018-05-31T08:12:51.378Z,20.80
2018-05-31T08:15:19.594Z,20.80
2018-05-31T08:17:48.665Z,20.80
2018-05-31T08:20:17.001Z,20.80
2018-05-31T08:22:45.238Z,20.80
2018-05-31T08:25:13.514Z,20.80
2018-05-31T08:27:42.381Z,20.80
2018-05-31T08:30:13.349Z,20.80
2018-05-31T08:32:42.607Z,20.80
2018-05-31T08:35:11.013Z,20.80
2018-05-31T08:39:12.240Z,20.80
2018-05-31T08:41:42.333Z,20.80
2018-05-31T08:44:11.056Z,20.70
2018-05-31T08:46:40.913Z,20.80
2018-05-31T08:49:11.362Z,20.80
2018-05-31T08:51:40.091Z,20.80
2018-05-31T08:54:08.699Z,20.80
2018-05-31T08:56:38.387Z,20.80
2018-05-31T08:59:07.592Z,20.80
2018-05-31T09:01:36.909Z,20.80
2018-05-31T09:04:05.205Z,20.80
2018-05-31T09:06:34.308Z,20.80
2018-05-31T09:09:03.599Z,20.80
2018-05-31T09:11:33.381Z,20.80
2018-05-31T09:14:02.624Z,20.80
2018-05-31T09:16:31.730Z,20.80
2018-05-31T09:19:01.100Z,20.80
2018-05-31T09:21:30.419Z,20.80
2018-05-31T09:23:58.854Z,20.80
2018-05-31T09:26:27.324Z,20.80
2018-05-31T09:28:56.577Z,20.80
2018-05-31T09:31:24.375Z,20.80
2018-05-31T09:33:52.006Z,20.80
2018-05-31T09:36:19.586Z,20.80
2018-05-31T09:38:49.100Z,20.90
2018-05-31T09:41:19.119Z,20.90
2018-05-31T09:43:46.872Z,20.90
2018-05-31T09:46:15.227Z,21.00
2018-05-31T09:48:43.100Z,21.00
2018-05-31T09:51:10.683Z,21.00
2018-05-31T09:53:38.740Z,21.00
2018-05-31T09:56:07.500Z,21.00
2018-05-31T09:58:35.893Z,21.10
2018-05-31T10:01:06.138Z,21.10
2018-05-31T10:03:33.942Z,21.10
2018-05-31T10:06:01.659Z,21.10
2018-05-31T10:08:29.302Z,21.10
2018-05-31T10:10:56.939Z,21.10
2018-05-31T10:13:25.692Z,21.10
2018-05-31T10:15:53.382Z,21.10
2018-05-31T10:18:21.930Z,21.00
2018-05-31T10:20:50.401Z,21.00
2018-05-31T10:23:18.326Z,21.00
2018-05-31T10:25:46.814Z,21.00
2018-05-31T10:28:15.212Z,21.00
2018-05-31T10:30:42.839Z,21.00
2018-05-31T10:33:10.516Z,21.00
2018-05-31T10:35:39.129Z,21.00
2018-05-31T10:40:42.299Z,20.90
2018-05-31T10:43:10.146Z,20.90
2018-05-31T10:45:39.255Z,20.90
2018-05-31T10:48:08.579Z,20.90
2018-05-31T10:50:37.038Z,20.90
2018-05-31T10:53:04.668Z,20.90
2018-05-31T10:55:32.366Z,20.90
2018-05-31T10:58:00.696Z,20.90
2018-05-31T11:00:28.390Z,20.90
2018-05-31T11:02:56.144Z,20.90
2018-05-31T11:05:25.122Z,20.90
2018-05-31T11:07:52.869Z,20.90
2018-05-31T11:10:20.631Z,20.90
2018-05-31T11:12:49.998Z,20.90
2018-05-31T11:15:17.692Z,20.90
2018-05-31T11:17:45.732Z,20.90
2018-05-31T11:20:13.435Z,20.90
2018-05-31T11:22:42.212Z,20.80
2018-05-31T11:25:10.651Z,20.90
2018-05-31T11:27:38.669Z,20.80
2018-05-31T11:30:06.478Z,20.90
2018-05-31T11:32:34.859Z,20.90
2018-05-31T11:35:02.590Z,20.90
2018-05-31T11:37:30.311Z,20.80
2018-05-31T11:39:58.742Z,20.90
2018-05-31T11:42:26.400Z,20.80
2018-05-31T11:44:54.844Z,20.90
2018-05-31T11:47:24.180Z,20.80
2018-05-31T11:49:51.937Z,20.80
2018-05-31T11:52:19.602Z,20.90
2018-05-31T11:54:48.092Z,20.90
2018-05-31T11:57:16.497Z,20.90
2018-05-31T11:59:45.780Z,20.90
2018-05-31T12:02:14.351Z,20.80
2018-05-31T12:04:42.720Z,20.90
2018-05-31T12:07:10.632Z,20.90
2018-05-31T12:09:39.535Z,20.80
2018-05-31T12:12:07.426Z,20.80
2018-05-31T12:14:35.100Z,20.80
2018-05-31T12:17:02.698Z,20.80
2018-05-31T12:19:30.353Z,20.80
2018-05-31T12:21:57.953Z,20.80
2018-05-31T12:24:25.525Z,20.80
2018-05-31T12:26:53.252Z,20.80
2018-05-31T12:29:21.741Z,20.80
2018-05-31T12:31:49.489Z,20.80
2018-05-31T12:34:17.204Z,20.80
2018-05-31T12:36:44.985Z,20.80
2018-05-31T12:39:12.735Z,20.80
2018-05-31T12:41:40.374Z,20.80
2018-05-31T12:44:09.225Z,20.80
2018-05-31T12:46:38.955Z,20.80
2018-05-31T12:49:07.028Z,20.80
2018-05-31T12:51:34.680Z,20.80
2018-05-31T12:54:02.666Z,20.80
2018-05-31T12:56:30.301Z,20.80
2018-05-31T12:58:58.674Z,20.80
2018-05-31T13:01:26.285Z,20.80
2018-05-31T13:03:53.888Z,20.80
2018-05-31T13:06:21.638Z,20.80
2018-05-31T13:08:49.280Z,20.80
2018-05-31T13:11:17.644Z,20.80
2018-05-31T13:13:45.241Z,20.80
2018-05-31T13:16:12.933Z,20.80
2018-05-31T13:18:41.421Z,20.80
2018-05-31T13:21:09.058Z,20.70
2018-05-31T13:23:36.626Z,20.80
2018-05-31T13:28:39.209Z,20.80
2018-05-31T13:31:06.968Z,20.80
2018-05-31T13:33:35.337Z,20.80
2018-05-31T13:36:03.051Z,20.80
2018-05-31T13:38:30.650Z,20.80
2018-05-31T13:40:58.364Z,20.80
2018-05-31T13:43:25.946Z,20.80
2018-05-31T13:45:53.565Z,20.80
2018-05-31T13:48:21.283Z,20.80
2018-05-31T13:50:49.000Z,20.80
2018-05-31T13:53:16.591Z,20.80
2018-05-31T13:55:44.346Z,20.80
2018-05-31T13:58:12.733Z,20.80
2018-05-31T14:00:41.128Z,20.80
2018-05-31T14:03:08.702Z,20.80
2018-05-31T14:05:36.371Z,20.80
2018-05-31T14:08:03.994Z,20.80
2018-05-31T14:10:32.367Z,20.80
2018-05-31T14:13:00.029Z,20.70
2018-05-31T14:15:27.758Z,20.80
2018-05-31T14:17:55.379Z,20.80
2018-05-31T14:20:22.973Z,20.80
2018-05-31T14:22:50.580Z,20.80
2018-05-31T14:25:18.172Z,20.80
2018-05-31T14:27:46.064Z,20.80
2018-05-31T14:30:13.658Z,20.80
2018-05-31T14:32:41.306Z,20.80
2018-05-31T14:35:08.990Z,20.70
2018-05-31T14:37:36.707Z,20.80
2018-05-31T14:40:04.382Z,20.80
2018-05-31T14:42:31.949Z,20.80
2018-05-31T14:44:59.512Z,20.80
2018-05-31T14:47:28.822Z,20.70
2018-05-31T14:49:56.408Z,20.70
2018-05-31T14:52:23.984Z,20.70
2018-05-31T14:54:51.558Z,20.70
2018-05-31T14:57:19.161Z,20.80
2018-05-31T14:59:46.789Z,20.70
2018-05-31T15:02:14.381Z,20.80
2018-05-31T15:04:41.945Z,20.70
2018-05-31T15:07:09.535Z,20.70
2018-05-31T15:09:37.187Z,20.70
2018-05-31T15:12:04.847Z,20.70
2018-05-31T15:14:32.509Z,20.70
2018-05-31T15:17:00.112Z,20.70
2018-05-31T15:19:27.701Z,20.70
2018-05-31T15:21:55.332Z,20.70
2018-05-31T15:24:23.668Z,20.70
2018-05-31T15:26:51.347Z,20.70
2018-05-31T15:29:18.941Z,20.80
2018-05-31T15:31:46.526Z,20.70
2018-05-31T15:34:14.085Z,20.70
2018-05-31T15:36:42.450Z,20.70
2018-05-31T15:39:10.017Z,20.70
2018-05-31T15:41:37.767Z,20.70
2018-05-31T15:44:06.187Z,20.70
2018-05-31T15:46:33.750Z,20.70
2018-05-31T15:49:01.346Z,20.70
2018-05-31T15:51:28.915Z,20.70
2018-05-31T15:53:57.249Z,20.70
2018-05-31T15:56:24.813Z,20.70
2018-05-31T15:58:52.415Z,20.70
2018-05-31T16:01:19.973Z,20.70
2018-05-31T16:03:48.316Z,20.70
2018-05-31T16:06:15.919Z,20.70
2018-05-31T16:08:43.553Z,20.70
2018-05-31T16:11:11.883Z,20.70
2018-05-31T16:13:39.886Z,20.70
2018-05-31T16:16:07.844Z,20.70
2018-05-31T16:18:35.431Z,20.70
2018-05-31T16:21:02.990Z,20.70
2018-05-31T16:23:30.596Z,20.70
2018-05-31T16:25:59.018Z,20.70
2018-05-31T16:28:26.657Z,20.70
2018-05-31T16:30:54.211Z,20.70
2018-05-31T16:33:21.845Z,20.70
2018-05-31T16:35:50.230Z,20.70
2018-05-31T16:38:18.041Z,20.70
2018-05-31T16:40:46.493Z,20.70
2018-05-31T16:43:14.186Z,20.70
2018-05-31T16:45:41.741Z,20.70
2018-05-31T16:48:09.337Z,20.70
2018-05-31T16:50:36.922Z,20.70
2018-05-31T16:53:04.487Z,20.70
2018-05-31T16:55:32.058Z,20.70
2018-05-31T16:57:59.643Z,20.70
2018-05-31T17:00:27.323Z,20.70
2018-05-31T17:02:55.659Z,20.70
2018-05-31T17:05:23.251Z,20.70
2018-05-31T17:07:50.840Z,20.70
2018-05-31T17:10:18.410Z,20.70
2018-05-31T17:12:46.021Z,20.70
2018-05-31T17:15:13.605Z,20.70
2018-05-31T17:17:41.218Z,20.70
2018-05-31T17:20:08.790Z,20.70
2018-05-31T17:22:36.407Z,20.70
2018-05-31T17:25:03.998Z,20.70
2018-05-31T17:27:32.364Z,20.70
2018-05-31T17:30:23.129Z,20.70
2018-05-31T17:32:50.750Z,20.70
2018-05-31T17:35:18.456Z,20.70
2018-05-31T17:37:46.042Z,20.70
2018-05-31T17:40:13.626Z,20.70
2018-05-31T17:42:41.225Z,20.70
2018-05-31T17:45:08.805Z,20.70
2018-05-31T17:47:36.410Z,20.70
2018-05-31T17:50:04.746Z,20.70
2018-05-31T17:52:32.338Z,20.70
2018-05-31T17:54:59.932Z,20.70
2018-05-31T17:57:27.610Z,20.70
2018-05-31T17:59:55.198Z,20.70
2018-05-31T18:02:22.795Z,20.70
2018-05-31T18:04:51.135Z,20.70
2018-05-31T18:07:18.741Z,20.70
2018-05-31T18:09:47.073Z,20.70
2018-05-31T18:12:14.677Z,20.70
2018-05-31T18:14:43.151Z,20.70
2018-05-31T18:17:11.044Z,20.70
2018-05-31T18:19:39.637Z,20.70
2018-05-31T18:22:08.065Z,20.70
2018-05-31T18:24:35.742Z,20.70
2018-05-31T18:27:03.398Z,20.70
2018-05-31T18:29:32.987Z,20.70
2018-05-31T18:32:00.632Z,20.70
2018-05-31T18:34:29.567Z,20.70
2018-05-31T18:36:57.357Z,20.70
2018-05-31T18:39:24.935Z,20.70
2018-05-31T18:41:52.698Z,20.70
2018-05-31T18:44:21.086Z,20.70
2018-05-31T18:46:48.673Z,20.70
2018-05-31T18:49:16.302Z,20.70
2018-05-31T18:51:44.793Z,20.70
2018-05-31T18:54:13.251Z,20.70
2018-05-31T18:56:40.907Z,20.70
2018-05-31T18:59:08.497Z,20.70
2018-05-31T19:01:37.426Z,20.70
2018-05-31T19:04:06.685Z,20.70
2018-05-31T19:06:35.089Z,20.70
2018-05-31T19:09:02.841Z,20.70
2018-05-31T19:11:30.501Z,20.70
2018-05-31T19:13:59.130Z,20.70
2018-05-31T19:16:28.333Z,20.70
2018-05-31T19:19:02.045Z,20.70
2018-05-31T19:21:31.487Z,20.70
2018-05-31T19:24:05.389Z,20.60
2018-05-31T19:26:34.440Z,20.70
2018-05-31T19:31:27.405Z,20.70
2018-05-31T19:33:55.665Z,20.70
2018-05-31T19:39:27.907Z,20.70
2018-05-31T19:41:56.876Z,20.70
2018-05-31T19:44:30.337Z,20.70
2018-05-31T19:46:59.499Z,20.70
2018-05-31T19:49:27.794Z,20.60
2018-05-31T19:52:01.436Z,20.70
2018-05-31T19:54:30.319Z,20.70
2018-05-31T19:56:58.575Z,20.70
2018-05-31T19:59:32.162Z,20.70
2018-05-31T20:02:05.394Z,20.70
2018-05-31T20:04:33.130Z,20.70
2018-05-31T20:07:01.609Z,20.70
2018-05-31T20:09:29.177Z,20.70
2018-05-31T20:11:56.778Z,20.70
2018-05-31T20:14:24.400Z,20.70
2018-05-31T20:16:52.250Z,20.70
2018-05-31T20:19:19.990Z,20.70
2018-05-31T20:21:48.925Z,20.70
2018-05-31T20:24:18.405Z,20.80
2018-05-31T20:26:51.496Z,20.80
2018-05-31T20:29:19.299Z,20.80
2018-05-31T20:34:46.067Z,20.90
2018-05-31T20:37:20.152Z,20.90
2018-05-31T20:39:50.787Z,20.90
2018-05-31T20:42:25.474Z,20.90
2018-05-31T20:44:56.627Z,20.90
2018-05-31T20:47:27.970Z,21.00
2018-05-31T20:49:58.669Z,21.00
2018-05-31T20:52:27.106Z,21.00
2018-05-31T20:54:56.674Z,21.00
2018-05-31T20:57:24.782Z,21.10
2018-05-31T20:59:52.769Z,21.10
2018-05-31T21:02:20.453Z,21.10
2018-05-31T21:04:48.345Z,21.20
2018-05-31T21:07:15.949Z,21.20
2018-05-31T21:09:43.720Z,21.20
2018-05-31T21:12:12.466Z,21.20
2018-05-31T21:14:46.456Z,21.20
2018-05-31T21:17:17.807Z,21.30
2018-05-31T21:19:45.579Z,21.30
2018-05-31T21:22:20.338Z,21.30
2018-05-31T21:24:53.717Z,21.30
2018-05-31T21:27:23.445Z,21.30
2018-05-31T21:29:53.291Z,21.30
2018-05-31T21:32:21.285Z,21.30
2018-05-31T21:34:49.228Z,21.30
2018-05-31T21:37:16.872Z,21.60
2018-05-31T21:39:44.557Z,21.50
2018-05-31T21:42:12.126Z,21.40
2018-05-31T21:44:39.698Z,21.40
2018-05-31T21:47:07.277Z,21.30
2018-05-31T21:49:34.898Z,21.30
2018-05-31T21:52:02.502Z,21.30
2018-05-31T21:54:30.155Z,21.20
2018-05-31T21:56:57.729Z,21.20
2018-05-31T21:59:25.326Z,21.20
2018-05-31T22:01:52.905Z,21.20
2018-05-31T22:04:20.594Z,21.20
2018-05-31T22:06:48.279Z,21.20
2018-05-31T22:09:15.868Z,21.20
2018-05-31T22:11:43.465Z,21.10
2018-05-31T22:14:11.063Z,21.10
2018-05-31T22:16:39.772Z,21.10
2018-05-31T22:19:07.742Z,21.10
2018-05-31T22:21:35.317Z,21.10
2018-05-31T22:24:02.899Z,21.10
2018-05-31T22:26:30.464Z,21.10
2018-05-31T22:28:58.094Z,21.10
2018-05-31T22:31:25.685Z,21.10
2018-05-31T22:33:53.280Z,21.00
2018-05-31T22:36:20.858Z,21.00
2018-05-31T22:38:48.493Z,21.10
2018-05-31T22:41:16.061Z,21.00
2018-05-31T22:43:43.755Z,21.00
2018-05-31T22:46:11.524Z,21.00
2018-05-31T22:48:39.380Z,21.00
2018-05-31T22:51:06.945Z,21.00
2018-05-31T22:53:35.294Z,21.00
2018-05-31T22:56:02.957Z,21.00
2018-05-31T22:58:30.533Z,21.00
2018-05-31T23:00:58.106Z,21.00
2018-05-31T23:03:25.701Z,21.00
2018-05-31T23:05:53.275Z,21.00
2018-05-31T23:08:20.893Z,21.00
2018-05-31T23:10:48.574Z,21.00
2018-05-31T23:13:16.238Z,21.00
2018-05-31T23:15:43.825Z,21.00
2018-05-31T23:18:11.429Z,20.90
2018-05-31T23:20:39.223Z,21.00
2018-05-31T23:23:06.801Z,20.90
2018-05-31T23:25:34.382Z,20.90
2018-05-31T23:28:01.954Z,20.90
2018-05-31T23:30:29.526Z,20.90
2018-05-31T23:32:57.129Z,20.90
2018-05-31T23:35:24.716Z,20.90
2018-05-31T23:37:52.290Z,20.90
2018-05-31T23:40:19.924Z,20.90
2018-05-31T23:42:47.564Z,20.90
2018-05-31T23:45:15.149Z,20.90
2018-05-31T23:47:42.733Z,20.90
2018-05-31T23:50:10.330Z,20.90
2018-05-31T23:52:38.222Z,20.90
2018-05-31T23:55:05.786Z,20.90
2018-05-31T23:57:33.386Z,20.90
